Details for Ryanair at LEPA




Go Back


Latest METAR
Local Time

LEPA 232330Z 04001KT 9999 FEW025 02/01 Q1008 NOSIG

24/02/2018, 00:44:34

Description
Results
Ryanair Logo
Number of Pilots based at LEPA
0 Pilots Based here
Number of Ryanair Flights Departed from LEPA
7 Flights Departed
Number of Ryanair Flights Arrived at LEPA
7 Flights Arrived
Number of Ryanair Schedules Departing from LEPA
117 Schedules
Number of Ryanair Schedules Arriving at LEPA
115 Schedules
Number of Ryanair Schedules Departing from LEPA availible today
40 Schedules Today
Number of Ryanair Schedules Arriving at LEPA availible today
40 Schedules Today
Average Landing Rate at LEPA
-177 fpm
Ryanair Average Landing Rate at LEPA
-175 fpm
Total Fuel Purchased at LEPA by Ryanair
39,336.89 kgs / 86,722.11 lbs

Pilots Based at LEPA


Pilot ID
Pilot Name
Pilot Rank
No. of Flights
No. of Flying Hours
There are no pilots assigned to this hub!   Will you be the first?
Content